Robert G. Stone, Jr. — WDD4596 — position and weather

sailwx.info

Track history (hours):
 
Tides and Currents Weather Stations Pressure Air Temp Water Temp Dewpoint Dewpoint Depression Visibility Wind Speed Wind Dir Waves Ship Positions

Robert G. Stone, Jr.

Owner: Kirby Inland Marine, LP, Houston, TX. More information available from US FCC via Universal Licensing System and Coast Guard Vessel Documentation Center.

Last reported at 2014-Nov-24 04:33 UTC. Time now 2014-Nov-24 21:35 UTC.
Position N 29°17' W 094°59'.

Length 27 m; draft 3.1 m.

Type: Towing. MMSI: 367146780.

Date/timePositionNaut miles runAvg speedWind from/ knotsBaromVisibWave heightAir tempDewpointWater temp
2014-Nov-24 04:33N 29°17' W 094°59'3 3.1
2014-Nov-24 03:30N 29°17' W 094°55'10 7.2
2014-Nov-24 02:04N 29°24' W 094°46'12 0.2
2014-Nov-22 02:33N 29°33' W 094°54'7 6.9
2014-Nov-22 01:33N 29°37' W 095°01'1 0.6
2014-Nov-22 00:33N 29°36' W 095°01'0 0.0
2014-Nov-21 23:33N 29°36' W 095°01'0 0.0
2014-Nov-21 22:33N 29°36' W 095°01'0 0.0
2014-Nov-21 21:33N 29°36' W 095°01'0 0.0
2014-Nov-21 20:34N 29°36' W 095°01'0 0.0
2014-Nov-21 19:33N 29°36' W 095°01'0 0.0
2014-Nov-21 18:34N 29°36' W 095°01'0 0.0
2014-Nov-21 17:33N 29°36' W 095°01'0 0.0
2014-Nov-21 16:33N 29°36' W 095°01'0 0.0
2014-Nov-21 15:34N 29°36' W 095°01'0 0.3
2014-Nov-21 14:33N 29°37' W 095°01'0 0.3
2014-Nov-21 13:33N 29°36' W 095°01'0 0.0
2014-Nov-21 12:34N 29°36' W 095°01'0 0.0
2014-Nov-21 11:34N 29°36' W 095°01'0 0.0
2014-Nov-21 10:33N 29°36' W 095°01'0 0.0
2014-Nov-21 09:33N 29°36' W 095°01'0 0.0
2014-Nov-21 08:33N 29°36' W 095°01'0 0.0
2014-Nov-21 07:34N 29°36' W 095°01'0 0.0
2014-Nov-21 06:33N 29°36' W 095°01'0 0.0
2014-Nov-21 05:33N 29°36' W 095°01'0 0.0
2014-Nov-21 04:33N 29°36' W 095°01'0 0.0
2014-Nov-21 03:33N 29°36' W 095°01'0 0.0
2014-Nov-21 02:33N 29°36' W 095°01'0 0.0
2014-Nov-21 01:34N 29°36' W 095°01'0 0.0
2014-Nov-21 00:34N 29°36' W 095°01'0 0.0
2014-Nov-20 23:33N 29°36' W 095°01'0 0.0
2014-Nov-20 22:34N 29°36' W 095°01'0 0.0
2014-Nov-20 21:34N 29°36' W 095°01'0 0.0
2014-Nov-20 20:34N 29°36' W 095°01'0 0.0
2014-Nov-20 19:34N 29°36' W 095°01'1 1.5
2014-Nov-20 18:33N 29°37' W 094°59'8 7.7
2014-Nov-20 17:33N 29°31' W 094°53'10 5.0
2014-Nov-20 15:31N 29°24' W 094°45'12 0.8
2014-Nov-20 01:14N 29°17' W 094°56'15 0.5
2014-Nov-18 20:33N 29°13' W 095°12'13 4.1
2014-Nov-18 17:29N 29°17' W 094°59'4 4.2
2014-Nov-18 16:33N 29°17' W 094°54'9 7.5
2014-Nov-18 15:25N 29°23' W 094°47'4 0.2
2014-Nov-17 15:14N 29°25' W 094°43'0 0.0
2014-Nov-16 16:28N 29°25' W 094°43'  
Track history (hours):
 
Tides and Currents Weather Stations Pressure Air Temp Water Temp Dewpoint Dewpoint Depression Visibility Wind Speed Wind Dir Waves Ship Positions

Robert G. Stone, Jr.

Owner: Kirby Inland Marine, LP, Houston, TX. More information available from US FCC via Universal Licensing System and Coast Guard Vessel Documentation Center.

Last reported at 2014-Nov-24 04:33 UTC. Time now 2014-Nov-24 21:35 UTC.
Position N 29°17' W 094°59'.

Length 27 m; draft 3.1 m.

Type: Towing. MMSI: 367146780.

Date/timePositionNaut miles runAvg speedWind from/ knotsBaromVisibWave heightAir tempDewpointWater temp
2014-Nov-24 04:33N 29°17' W 094°59'3 3.1
2014-Nov-24 03:30N 29°17' W 094°55'10 7.2
2014-Nov-24 02:04N 29°24' W 094°46'12 0.2
2014-Nov-22 02:33N 29°33' W 094°54'7 6.9
2014-Nov-22 01:33N 29°37' W 095°01'1 0.6
2014-Nov-22 00:33N 29°36' W 095°01'0 0.0
2014-Nov-21 23:33N 29°36' W 095°01'0 0.0
2014-Nov-21 22:33N 29°36' W 095°01'0 0.0
2014-Nov-21 21:33N 29°36' W 095°01'0 0.0
2014-Nov-21 20:34N 29°36' W 095°01'0 0.0
2014-Nov-21 19:33N 29°36' W 095°01'0 0.0
2014-Nov-21 18:34N 29°36' W 095°01'0 0.0
2014-Nov-21 17:33N 29°36' W 095°01'0 0.0
2014-Nov-21 16:33N 29°36' W 095°01'0 0.0
2014-Nov-21 15:34N 29°36' W 095°01'0 0.3
2014-Nov-21 14:33N 29°37' W 095°01'0 0.3
2014-Nov-21 13:33N 29°36' W 095°01'0 0.0
2014-Nov-21 12:34N 29°36' W 095°01'0 0.0
2014-Nov-21 11:34N 29°36' W 095°01'0 0.0
2014-Nov-21 10:33N 29°36' W 095°01'0 0.0
2014-Nov-21 09:33N 29°36' W 095°01'0 0.0
2014-Nov-21 08:33N 29°36' W 095°01'0 0.0
2014-Nov-21 07:34N 29°36' W 095°01'0 0.0
2014-Nov-21 06:33N 29°36' W 095°01'0 0.0
2014-Nov-21 05:33N 29°36' W 095°01'0 0.0
2014-Nov-21 04:33N 29°36' W 095°01'0 0.0
2014-Nov-21 03:33N 29°36' W 095°01'0 0.0
2014-Nov-21 02:33N 29°36' W 095°01'0 0.0
2014-Nov-21 01:34N 29°36' W 095°01'0 0.0
2014-Nov-21 00:34N 29°36' W 095°01'0 0.0
2014-Nov-20 23:33N 29°36' W 095°01'0 0.0
2014-Nov-20 22:34N 29°36' W 095°01'0 0.0
2014-Nov-20 21:34N 29°36' W 095°01'0 0.0
2014-Nov-20 20:34N 29°36' W 095°01'0 0.0
2014-Nov-20 19:34N 29°36' W 095°01'1 1.5
2014-Nov-20 18:33N 29°37' W 094°59'8 7.7
2014-Nov-20 17:33N 29°31' W 094°53'10 5.0
2014-Nov-20 15:31N 29°24' W 094°45'12 0.8
2014-Nov-20 01:14N 29°17' W 094°56'15 0.5
2014-Nov-18 20:33N 29°13' W 095°12'13 4.1
2014-Nov-18 17:29N 29°17' W 094°59'4 4.2
2014-Nov-18 16:33N 29°17' W 094°54'9 7.5
2014-Nov-18 15:25N 29°23' W 094°47'4 0.2
2014-Nov-17 15:14N 29°25' W 094°43'0 0.0
2014-Nov-16 16:28N 29°25' W 094°43'  

Dump ship's entire track history